createdAt,value
2019-06-27T00:00:21.282Z,99.90
2019-06-27T00:02:26.060Z,99.90
2019-06-27T00:04:30.805Z,99.90
2019-06-27T00:06:35.566Z,99.90
2019-06-27T00:08:40.460Z,99.90
2019-06-27T00:10:45.613Z,99.90
2019-06-27T00:12:50.378Z,99.90
2019-06-27T00:14:55.627Z,99.90
2019-06-27T00:17:00.812Z,99.90
2019-06-27T00:19:05.953Z,99.90
2019-06-27T00:21:11.128Z,99.90
2019-06-27T00:23:16.581Z,99.90
2019-06-27T00:25:21.301Z,99.90
2019-06-27T00:27:26.057Z,99.90
2019-06-27T00:29:30.789Z,99.90
2019-06-27T00:31:35.976Z,99.90
2019-06-27T00:33:41.024Z,99.90
2019-06-27T00:35:45.762Z,99.90
2019-06-27T00:37:50.587Z,99.90
2019-06-27T00:39:55.749Z,99.90
2019-06-27T00:42:00.470Z,99.90
2019-06-27T00:44:05.279Z,99.90
2019-06-27T00:46:10.742Z,99.90
2019-06-27T00:48:15.571Z,99.90
2019-06-27T00:50:20.412Z,99.90
2019-06-27T00:52:25.159Z,99.90
2019-06-27T00:54:29.941Z,99.90
2019-06-27T00:56:35.179Z,99.90
2019-06-27T00:58:39.982Z,99.90
2019-06-27T01:00:44.873Z,99.90
2019-06-27T01:02:49.622Z,99.90
2019-06-27T01:04:54.679Z,99.90
2019-06-27T01:06:59.465Z,99.90
2019-06-27T01:09:05.772Z,99.90
2019-06-27T01:11:10.941Z,99.90
2019-06-27T01:13:15.927Z,99.90
2019-06-27T01:15:20.999Z,99.90
2019-06-27T01:17:25.727Z,99.90
2019-06-27T01:19:30.500Z,99.90
2019-06-27T01:21:35.235Z,99.90
2019-06-27T01:23:40.218Z,99.90
2019-06-27T01:25:45.521Z,99.90
2019-06-27T01:27:50.301Z,99.90
2019-06-27T01:29:55.047Z,99.90
2019-06-27T01:31:59.900Z,99.90
2019-06-27T01:34:05.034Z,99.90
2019-06-27T01:36:09.825Z,99.90
2019-06-27T01:38:14.545Z,99.90
2019-06-27T01:40:19.651Z,99.90
2019-06-27T01:42:24.367Z,99.90
2019-06-27T01:45:03.386Z,99.90
2019-06-27T01:47:08.637Z,99.90
2019-06-27T01:49:13.348Z,99.90
2019-06-27T01:51:18.104Z,99.90
2019-06-27T01:53:23.273Z,99.90
2019-06-27T01:55:28.040Z,99.90
2019-06-27T01:57:46.148Z,99.90
2019-06-27T01:59:39.694Z,99.90
2019-06-27T02:01:44.851Z,99.90
2019-06-27T02:03:49.564Z,99.90
2019-06-27T02:05:54.277Z,99.90
2019-06-27T02:07:59.415Z,99.90
2019-06-27T02:10:04.269Z,99.90
2019-06-27T02:12:09.068Z,99.90
2019-06-27T02:14:13.785Z,99.90
2019-06-27T02:16:18.504Z,99.90
2019-06-27T02:18:24.086Z,99.90
2019-06-27T02:20:29.005Z,99.90
2019-06-27T02:22:34.203Z,99.90
2019-06-27T02:24:38.956Z,99.90
2019-06-27T02:26:44.097Z,99.90
2019-06-27T02:28:49.241Z,99.90
2019-06-27T02:30:53.973Z,99.90
2019-06-27T02:32:59.135Z,99.90
2019-06-27T02:35:03.958Z,99.90
2019-06-27T02:37:08.708Z,99.90
2019-06-27T02:39:13.852Z,99.90
2019-06-27T02:41:18.634Z,99.90
2019-06-27T02:43:23.624Z,99.90
2019-06-27T02:45:28.400Z,99.90
2019-06-27T02:47:33.198Z,99.90
2019-06-27T02:49:38.008Z,99.90
2019-06-27T02:51:42.756Z,99.90
2019-06-27T02:53:47.595Z,99.90
2019-06-27T02:55:52.321Z,99.90
2019-06-27T02:57:57.420Z,99.90
2019-06-27T03:00:02.187Z,99.90
2019-06-27T03:02:07.047Z,99.90
2019-06-27T03:04:11.766Z,99.90
2019-06-27T03:06:16.931Z,99.90
2019-06-27T03:08:21.841Z,99.90
2019-06-27T03:10:26.632Z,99.90
2019-06-27T03:12:31.464Z,99.90
2019-06-27T03:14:36.218Z,99.90
2019-06-27T03:16:41.215Z,99.90
2019-06-27T03:18:46.695Z,99.90
2019-06-27T03:20:51.956Z,99.90
2019-06-27T03:22:56.859Z,99.90
2019-06-27T03:25:01.650Z,99.90
2019-06-27T03:27:06.366Z,99.90
2019-06-27T03:29:11.486Z,99.90
2019-06-27T03:31:16.451Z,99.90
2019-06-27T03:33:21.333Z,99.90
2019-06-27T03:35:26.105Z,99.90
2019-06-27T03:37:34.059Z,99.90
2019-06-27T03:39:39.946Z,99.90
2019-06-27T03:41:48.344Z,99.90
2019-06-27T03:43:53.751Z,99.90
2019-06-27T03:45:59.001Z,99.90
2019-06-27T03:48:04.116Z,99.90
2019-06-27T03:50:09.771Z,99.90
2019-06-27T03:52:14.651Z,99.90
2019-06-27T03:54:20.193Z,99.90
2019-06-27T03:56:25.189Z,99.90
2019-06-27T03:58:30.149Z,99.90
2019-06-27T04:00:36.010Z,99.90
2019-06-27T04:02:41.034Z,99.90
2019-06-27T04:04:46.148Z,99.90
2019-06-27T04:06:51.718Z,99.90
2019-06-27T04:08:57.333Z,99.90
2019-06-27T04:11:02.834Z,99.90
2019-06-27T04:13:08.260Z,99.90
2019-06-27T04:15:13.582Z,99.90
2019-06-27T04:17:18.602Z,99.90
2019-06-27T04:19:23.314Z,99.90
2019-06-27T04:21:28.120Z,99.90
2019-06-27T04:23:33.245Z,99.90
2019-06-27T04:25:38.441Z,99.90
2019-06-27T04:27:43.258Z,99.90
2019-06-27T04:29:50.355Z,99.90
2019-06-27T04:31:55.623Z,99.90
2019-06-27T04:34:00.975Z,99.90
2019-06-27T04:36:08.778Z,99.90
2019-06-27T04:38:14.151Z,99.90
2019-06-27T04:40:19.253Z,99.90
2019-06-27T04:42:24.343Z,99.90
2019-06-27T04:44:29.408Z,99.90
2019-06-27T04:46:34.925Z,99.90
2019-06-27T04:48:40.141Z,99.90
2019-06-27T04:50:45.622Z,99.90
2019-06-27T04:52:51.649Z,99.90
2019-06-27T04:54:56.925Z,99.90
2019-06-27T04:57:03.446Z,99.90
2019-06-27T04:59:08.976Z,99.90
2019-06-27T05:01:15.652Z,99.90
2019-06-27T05:03:21.151Z,99.90
2019-06-27T05:05:25.949Z,99.90
2019-06-27T05:07:30.783Z,99.90
2019-06-27T05:09:35.994Z,99.90
2019-06-27T05:11:40.778Z,99.90
2019-06-27T05:13:46.067Z,99.90
2019-06-27T05:15:51.753Z,99.90
2019-06-27T05:17:56.959Z,99.90
2019-06-27T05:20:03.202Z,99.90
2019-06-27T05:22:08.695Z,99.90
2019-06-27T05:24:14.114Z,99.90
2019-06-27T05:26:19.194Z,99.90
2019-06-27T05:28:24.336Z,99.90
2019-06-27T05:30:29.659Z,99.90
2019-06-27T05:32:34.446Z,99.90
2019-06-27T05:34:39.637Z,99.90
2019-06-27T05:36:44.880Z,99.90
2019-06-27T05:38:49.820Z,99.90
2019-06-27T05:40:54.595Z,99.90
2019-06-27T05:42:59.436Z,99.90
2019-06-27T05:45:04.232Z,99.90
2019-06-27T05:47:08.993Z,99.90
2019-06-27T05:49:14.191Z,99.90
2019-06-27T05:51:19.051Z,99.90
2019-06-27T05:53:23.843Z,99.90
2019-06-27T05:55:28.677Z,99.90
2019-06-27T05:57:33.625Z,99.90
2019-06-27T05:59:38.350Z,99.90
2019-06-27T06:01:43.648Z,99.90
2019-06-27T06:03:48.611Z,99.90
2019-06-27T06:05:53.826Z,99.90
2019-06-27T06:07:58.563Z,99.90
2019-06-27T06:10:03.305Z,99.90
2019-06-27T06:12:08.051Z,99.90
2019-06-27T06:14:12.921Z,99.90
2019-06-27T06:16:17.769Z,99.90
2019-06-27T06:18:23.068Z,99.90
2019-06-27T06:20:28.677Z,99.90
2019-06-27T06:22:33.712Z,99.90
2019-06-27T06:24:38.704Z,99.90
2019-06-27T06:26:47.002Z,99.90
2019-06-27T06:28:51.911Z,99.90
2019-06-27T06:30:56.671Z,99.90
2019-06-27T06:33:02.004Z,99.90
2019-06-27T06:35:07.048Z,99.90
2019-06-27T06:37:11.832Z,99.90
2019-06-27T06:39:16.657Z,99.90
2019-06-27T06:41:21.481Z,99.90
2019-06-27T06:43:26.288Z,99.90
2019-06-27T06:45:31.112Z,99.90
2019-06-27T06:47:36.266Z,99.90
2019-06-27T06:49:41.065Z,99.90
2019-06-27T06:51:46.257Z,99.90
2019-06-27T06:53:51.835Z,99.90
2019-06-27T06:55:56.608Z,99.90
2019-06-27T06:58:01.400Z,99.90
2019-06-27T07:00:08.472Z,99.90
2019-06-27T07:02:13.616Z,99.90
2019-06-27T07:04:18.360Z,99.90
2019-06-27T07:06:23.419Z,99.90
2019-06-27T07:08:28.657Z,99.90
2019-06-27T07:10:33.683Z,99.90
2019-06-27T07:12:39.011Z,99.90
2019-06-27T07:14:43.847Z,99.90
2019-06-27T07:16:50.181Z,99.90
2019-06-27T07:18:54.995Z,99.90
2019-06-27T07:20:59.886Z,99.90
2019-06-27T07:23:04.791Z,99.90
2019-06-27T07:25:09.932Z,99.90
2019-06-27T07:27:14.668Z,99.90
2019-06-27T07:29:38.513Z,99.90
2019-06-27T07:31:43.354Z,99.90
2019-06-27T07:33:48.543Z,99.90
2019-06-27T07:35:53.742Z,99.90
2019-06-27T07:37:58.529Z,99.90
2019-06-27T07:40:03.275Z,99.90
2019-06-27T07:42:08.453Z,99.80
2019-06-27T07:44:13.246Z,99.90
2019-06-27T07:46:25.091Z,99.40
2019-06-27T07:48:24.804Z,99.90
2019-06-27T07:50:29.983Z,99.00
2019-06-27T07:52:34.796Z,99.10
2019-06-27T07:54:39.797Z,98.40
2019-06-27T07:56:46.299Z,98.90
2019-06-27T07:58:50.987Z,97.40
2019-06-27T08:00:56.019Z,97.60
2019-06-27T08:03:00.778Z,97.40
2019-06-27T08:05:06.201Z,97.40
2019-06-27T08:07:11.013Z,96.70
2019-06-27T08:09:15.804Z,96.40
2019-06-27T08:11:20.564Z,95.80
2019-06-27T08:13:25.531Z,95.30
2019-06-27T08:15:30.347Z,96.40
2019-06-27T08:17:35.108Z,96.60
2019-06-27T08:19:39.853Z,97.00
2019-06-27T08:21:44.550Z,96.80
2019-06-27T08:23:49.289Z,96.00
2019-06-27T08:25:54.380Z,96.10
2019-06-27T08:27:59.708Z,96.20
2019-06-27T08:30:08.252Z,95.40
2019-06-27T08:32:11.444Z,94.60
2019-06-27T08:34:16.366Z,95.40
2019-06-27T08:36:21.670Z,94.50
2019-06-27T08:38:26.907Z,94.70
2019-06-27T08:40:31.670Z,93.00
2019-06-27T08:42:39.806Z,94.20
2019-06-27T08:44:44.548Z,94.00
2019-06-27T08:46:49.254Z,96.10
2019-06-27T08:48:54.055Z,94.70
2019-06-27T08:50:58.751Z,95.70
2019-06-27T08:53:04.269Z,95.10
2019-06-27T08:55:09.062Z,96.20
2019-06-27T08:57:13.826Z,94.30
2019-06-27T08:59:18.599Z,94.20
2019-06-27T09:01:23.471Z,95.50
2019-06-27T09:03:28.252Z,95.60
2019-06-27T09:05:33.487Z,94.80
2019-06-27T09:07:39.131Z,95.00
2019-06-27T09:09:44.231Z,94.20
2019-06-27T09:11:51.848Z,94.50
2019-06-27T09:13:56.624Z,93.90
2019-06-27T09:16:02.621Z,95.20
2019-06-27T09:18:07.794Z,95.70
2019-06-27T09:20:13.329Z,95.80
2019-06-27T09:22:18.111Z,94.60
2019-06-27T09:24:22.926Z,95.30
2019-06-27T09:26:27.707Z,94.30
2019-06-27T09:28:33.120Z,92.90
2019-06-27T09:30:38.537Z,92.70
2019-06-27T09:32:43.306Z,92.70
2019-06-27T09:34:48.394Z,92.90
2019-06-27T09:36:53.551Z,93.20
2019-06-27T09:38:58.318Z,93.10
2019-06-27T09:41:03.098Z,94.30
2019-06-27T09:43:08.241Z,91.40
2019-06-27T09:45:13.141Z,91.40
2019-06-27T09:47:17.951Z,92.00
2019-06-27T09:49:23.132Z,92.70
2019-06-27T09:51:28.285Z,92.30
2019-06-27T09:53:33.506Z,92.30
2019-06-27T09:55:38.500Z,91.80
2019-06-27T09:57:44.075Z,92.50
2019-06-27T09:59:49.367Z,92.10
2019-06-27T10:01:54.421Z,92.30
2019-06-27T10:04:00.206Z,89.00
2019-06-27T10:06:05.566Z,88.90
2019-06-27T10:08:10.949Z,88.50
2019-06-27T10:10:16.439Z,91.00
2019-06-27T10:12:21.887Z,90.70
2019-06-27T10:14:27.596Z,89.30
2019-06-27T10:16:33.467Z,88.40
2019-06-27T10:18:38.667Z,85.90
2019-06-27T10:20:43.934Z,88.10
2019-06-27T10:22:52.305Z,87.60
2019-06-27T10:24:57.461Z,88.40
2019-06-27T10:27:02.906Z,89.70
2019-06-27T10:29:10.237Z,89.20
2019-06-27T10:31:15.918Z,90.00
2019-06-27T10:33:21.107Z,89.40
2019-06-27T10:35:26.546Z,88.60
2019-06-27T10:37:32.018Z,88.10
2019-06-27T10:39:36.822Z,89.50
2019-06-27T10:41:41.592Z,87.20
2019-06-27T10:43:46.739Z,85.50
2019-06-27T10:45:51.559Z,86.10
2019-06-27T10:47:56.831Z,85.90
2019-06-27T10:50:01.585Z,89.80
2019-06-27T10:52:06.399Z,86.10
2019-06-27T10:54:11.284Z,86.50
2019-06-27T10:56:16.017Z,87.90
2019-06-27T10:58:20.799Z,89.80
2019-06-27T11:00:26.258Z,84.30
2019-06-27T11:02:31.103Z,85.10
2019-06-27T11:04:37.146Z,84.70
2019-06-27T11:06:41.939Z,84.00
2019-06-27T11:08:46.810Z,82.90
2019-06-27T11:10:51.599Z,84.80
2019-06-27T11:12:59.388Z,87.10
2019-06-27T11:15:03.272Z,84.20
2019-06-27T11:17:07.993Z,80.60
2019-06-27T11:19:13.278Z,83.60
2019-06-27T11:21:18.091Z,84.40
2019-06-27T11:23:23.953Z,85.10
2019-06-27T11:25:29.490Z,84.10
2019-06-27T11:27:34.291Z,84.00
2019-06-27T11:29:39.106Z,87.20
2019-06-27T11:31:44.268Z,88.20
2019-06-27T11:33:49.218Z,86.90
2019-06-27T11:35:53.992Z,85.20
2019-06-27T11:37:58.796Z,78.90
2019-06-27T11:40:03.866Z,77.60
2019-06-27T11:42:08.652Z,79.60
2019-06-27T11:44:13.344Z,81.60
2019-06-27T11:46:18.133Z,83.20
2019-06-27T11:48:22.887Z,84.10
2019-06-27T11:50:27.587Z,84.70
2019-06-27T11:52:32.664Z,82.50
2019-06-27T11:54:37.783Z,80.60
2019-06-27T11:56:42.541Z,83.90
2019-06-27T11:58:47.557Z,82.90
2019-06-27T12:00:52.828Z,82.70
2019-06-27T12:02:58.167Z,83.70
2019-06-27T12:05:03.391Z,80.20
2019-06-27T12:07:08.833Z,82.50
2019-06-27T12:09:14.687Z,82.00
2019-06-27T12:11:20.001Z,79.60
2019-06-27T12:13:25.105Z,79.70
2019-06-27T12:15:30.167Z,80.50
2019-06-27T12:17:35.300Z,73.00
2019-06-27T12:19:41.256Z,75.70
2019-06-27T12:21:46.377Z,77.90
2019-06-27T12:23:53.021Z,76.70
2019-06-27T12:25:58.343Z,77.10
2019-06-27T12:28:03.458Z,78.10
2019-06-27T12:30:08.832Z,75.70
2019-06-27T12:32:13.828Z,77.50
2019-06-27T12:34:19.391Z,75.40
2019-06-27T12:36:24.411Z,76.40
2019-06-27T12:38:29.496Z,77.30
2019-06-27T12:40:34.602Z,75.30
2019-06-27T12:42:39.689Z,74.40
2019-06-27T12:44:44.948Z,74.60
2019-06-27T12:46:50.124Z,73.70
2019-06-27T12:48:55.345Z,73.40
2019-06-27T12:51:01.094Z,74.60
2019-06-27T12:53:05.871Z,74.70
2019-06-27T12:55:11.188Z,71.70
2019-06-27T12:57:16.730Z,73.70
2019-06-27T12:59:21.524Z,70.30
2019-06-27T13:01:26.746Z,72.90
2019-06-27T13:03:31.906Z,71.00
2019-06-27T13:05:36.662Z,70.30
2019-06-27T13:07:41.369Z,70.20
2019-06-27T13:09:46.149Z,70.50
2019-06-27T13:11:51.026Z,72.10
2019-06-27T13:13:56.133Z,71.00
2019-06-27T13:16:00.980Z,69.00
2019-06-27T13:18:06.328Z,70.10
2019-06-27T13:20:11.575Z,67.80
2019-06-27T13:22:16.594Z,66.40
2019-06-27T13:24:21.660Z,67.30
2019-06-27T13:26:26.856Z,67.60
2019-06-27T13:28:32.143Z,66.60
2019-06-27T13:30:37.245Z,69.30
2019-06-27T13:32:42.371Z,69.00
2019-06-27T13:34:47.212Z,69.60
2019-06-27T13:36:53.120Z,68.60
2019-06-27T13:38:58.129Z,67.80
2019-06-27T13:41:03.659Z,65.50
2019-06-27T13:43:08.436Z,69.50
2019-06-27T13:45:13.934Z,69.50
2019-06-27T13:47:20.507Z,68.10
2019-06-27T13:49:25.409Z,70.20
2019-06-27T13:51:31.851Z,69.80
2019-06-27T13:53:36.841Z,69.00
2019-06-27T13:55:41.633Z,69.30
2019-06-27T13:57:46.414Z,67.90
2019-06-27T13:59:51.378Z,68.00
2019-06-27T14:01:56.157Z,67.40
2019-06-27T14:04:01.352Z,68.60
2019-06-27T14:06:06.132Z,68.50
2019-06-27T14:08:11.377Z,69.10
2019-06-27T14:10:16.092Z,68.40
2019-06-27T14:12:21.559Z,67.80
2019-06-27T14:14:26.503Z,68.30
2019-06-27T14:16:31.286Z,67.10
2019-06-27T14:18:36.510Z,67.80
2019-06-27T14:20:41.652Z,65.90
2019-06-27T14:22:46.352Z,68.50
2019-06-27T14:24:51.323Z,67.30
2019-06-27T14:26:56.120Z,68.60
2019-06-27T14:29:01.398Z,67.60
2019-06-27T14:31:06.619Z,68.70
2019-06-27T14:33:11.388Z,70.00
2019-06-27T14:35:16.671Z,67.00
2019-06-27T14:37:21.536Z,68.80
2019-06-27T14:39:27.419Z,67.60
2019-06-27T14:41:33.268Z,68.20
2019-06-27T14:43:38.920Z,68.60
2019-06-27T14:45:43.815Z,67.50
2019-06-27T14:47:50.022Z,68.50
2019-06-27T14:49:55.998Z,69.70
2019-06-27T14:52:01.924Z,69.50
2019-06-27T14:54:06.678Z,67.40
2019-06-27T14:56:11.601Z,70.00
2019-06-27T14:58:16.500Z,67.30
2019-06-27T15:00:23.641Z,67.60
2019-06-27T15:02:28.626Z,68.70
2019-06-27T15:04:33.764Z,69.80
2019-06-27T15:06:38.516Z,70.70
2019-06-27T15:08:43.646Z,70.60
2019-06-27T15:10:48.597Z,69.10
2019-06-27T15:12:57.383Z,69.10
2019-06-27T15:15:00.919Z,69.10
2019-06-27T15:17:05.988Z,70.00
2019-06-27T15:19:10.735Z,69.30
2019-06-27T15:21:15.765Z,70.80
2019-06-27T15:23:21.260Z,69.80
2019-06-27T15:25:28.547Z,69.20
2019-06-27T15:27:36.638Z,70.30
2019-06-27T15:29:42.271Z,70.30
2019-06-27T15:31:48.631Z,69.80
2019-06-27T15:33:54.544Z,70.10
2019-06-27T15:36:00.834Z,68.90
2019-06-27T15:38:06.542Z,68.60
2019-06-27T15:40:13.200Z,69.70
2019-06-27T15:42:19.160Z,70.70
2019-06-27T15:44:24.971Z,69.70
2019-06-27T15:46:30.344Z,71.40
2019-06-27T15:48:35.727Z,71.00
2019-06-27T15:50:43.533Z,71.20
2019-06-27T15:52:49.813Z,71.70
2019-06-27T15:54:55.970Z,72.30
2019-06-27T15:57:02.548Z,71.00
2019-06-27T15:59:08.164Z,71.70
2019-06-27T16:01:13.782Z,70.60
2019-06-27T16:03:21.904Z,71.30
2019-06-27T16:05:28.756Z,71.20
2019-06-27T16:07:34.624Z,71.90
2019-06-27T16:09:40.482Z,72.40
2019-06-27T16:11:46.144Z,72.70
2019-06-27T16:13:52.140Z,71.90
2019-06-27T16:15:59.176Z,72.00
2019-06-27T16:18:06.357Z,72.40
2019-06-27T16:20:12.518Z,73.10
2019-06-27T16:22:18.250Z,74.10
2019-06-27T16:24:24.098Z,75.10
2019-06-27T16:26:29.985Z,75.40
2019-06-27T16:28:35.922Z,75.50
2019-06-27T16:30:42.166Z,76.00
2019-06-27T16:32:54.565Z,75.10
2019-06-27T16:35:37.002Z,75.90
2019-06-27T16:37:42.984Z,75.80
2019-06-27T16:39:49.967Z,76.70
2019-06-27T16:41:55.781Z,77.20
2019-06-27T16:44:01.825Z,76.60
2019-06-27T16:46:08.249Z,74.00
2019-06-27T16:48:14.259Z,73.90
2019-06-27T16:50:20.126Z,75.20
2019-06-27T16:52:26.537Z,76.70
2019-06-27T16:54:32.235Z,77.20
2019-06-27T16:56:38.496Z,77.10
2019-06-27T16:58:44.098Z,78.20
2019-06-27T17:00:50.219Z,78.50
2019-06-27T17:02:56.320Z,79.60
2019-06-27T17:05:18.067Z,77.90
2019-06-27T17:07:24.152Z,78.80
2019-06-27T17:09:30.491Z,79.10
2019-06-27T17:11:37.144Z,79.30
2019-06-27T17:13:43.230Z,79.80
2019-06-27T17:15:49.355Z,78.50
2019-06-27T17:17:55.478Z,79.00
2019-06-27T17:20:01.008Z,79.40
2019-06-27T17:22:06.984Z,80.10
2019-06-27T17:24:12.570Z,78.90
2019-06-27T17:26:18.291Z,78.90
2019-06-27T17:28:25.718Z,79.30
2019-06-27T17:30:31.794Z,80.00
2019-06-27T17:32:37.554Z,80.30
2019-06-27T17:34:43.624Z,82.80
2019-06-27T17:36:57.509Z,82.20
2019-06-27T17:38:57.798Z,82.60
2019-06-27T17:41:03.633Z,82.80
2019-06-27T17:43:11.241Z,83.20
2019-06-27T17:45:17.185Z,83.80
2019-06-27T17:47:23.724Z,84.60
2019-06-27T17:49:29.282Z,84.40
2019-06-27T17:51:35.148Z,84.10
2019-06-27T17:53:41.395Z,85.30
2019-06-27T17:55:48.071Z,85.00
2019-06-27T17:57:55.170Z,85.60
2019-06-27T18:00:01.096Z,85.80
2019-06-27T18:02:06.770Z,85.80
2019-06-27T18:04:13.040Z,84.50
2019-06-27T18:06:18.801Z,84.60
2019-06-27T18:08:24.295Z,85.80
2019-06-27T18:10:29.327Z,85.60
2019-06-27T18:12:34.443Z,84.80
2019-06-27T18:14:39.525Z,85.10
2019-06-27T18:16:44.554Z,84.90
2019-06-27T18:18:49.710Z,86.30
2019-06-27T18:20:54.460Z,86.30
2019-06-27T18:22:59.232Z,86.20
2019-06-27T18:25:03.981Z,88.00
2019-06-27T18:27:09.037Z,87.80
2019-06-27T18:29:13.851Z,88.10
2019-06-27T18:31:20.914Z,88.60
2019-06-27T18:33:26.276Z,88.50
2019-06-27T18:35:32.128Z,88.00
2019-06-27T18:37:38.407Z,89.80
2019-06-27T18:39:44.310Z,89.80
2019-06-27T18:41:50.566Z,90.40
2019-06-27T18:43:55.320Z,89.60
2019-06-27T18:46:00.232Z,90.10
2019-06-27T18:48:05.022Z,90.40
2019-06-27T18:50:10.604Z,90.40
2019-06-27T18:52:15.890Z,90.40
2019-06-27T18:54:21.036Z,90.90
2019-06-27T18:56:26.878Z,91.10
2019-06-27T18:58:31.742Z,91.30
2019-06-27T19:00:37.502Z,91.60
2019-06-27T19:02:42.582Z,92.40
2019-06-27T19:04:47.423Z,92.50
2019-06-27T19:06:52.384Z,92.60
2019-06-27T19:08:57.230Z,93.10
2019-06-27T19:11:02.010Z,93.60
2019-06-27T19:13:06.884Z,93.70
2019-06-27T19:15:11.850Z,94.20
2019-06-27T19:17:16.722Z,94.20
2019-06-27T19:19:24.374Z,94.40
2019-06-27T19:21:46.236Z,95.00
2019-06-27T19:24:13.132Z,95.10
2019-06-27T19:26:18.358Z,95.60
2019-06-27T19:28:23.422Z,95.50
2019-06-27T19:30:28.419Z,95.90
2019-06-27T19:32:34.592Z,95.70
2019-06-27T19:34:39.536Z,95.50
2019-06-27T19:36:44.764Z,96.20
2019-06-27T19:38:49.989Z,96.40
2019-06-27T19:40:54.897Z,97.20
2019-06-27T19:43:00.212Z,97.40
2019-06-27T19:45:05.327Z,97.40
2019-06-27T19:47:10.248Z,97.50
2019-06-27T19:49:15.047Z,97.40
2019-06-27T19:51:19.918Z,97.20
2019-06-27T19:53:25.168Z,97.40
2019-06-27T19:55:30.145Z,97.40
2019-06-27T19:57:35.414Z,97.40
2019-06-27T19:59:40.602Z,97.50
2019-06-27T20:01:45.775Z,98.00
2019-06-27T20:03:50.573Z,97.80
2019-06-27T20:05:55.827Z,98.00
2019-06-27T20:08:17.424Z,98.20
2019-06-27T20:10:11.539Z,98.40
2019-06-27T20:12:14.898Z,98.70
2019-06-27T20:14:19.741Z,99.10
2019-06-27T20:16:25.028Z,99.40
2019-06-27T20:18:29.861Z,99.40
2019-06-27T20:20:34.762Z,99.80
2019-06-27T20:22:39.544Z,99.70
2019-06-27T20:24:44.340Z,99.90
2019-06-27T20:26:49.139Z,99.90
2019-06-27T20:28:53.978Z,99.90
2019-06-27T20:30:58.820Z,99.90
2019-06-27T20:33:03.677Z,99.90
2019-06-27T20:35:08.631Z,99.90
2019-06-27T20:37:13.678Z,99.90
2019-06-27T20:39:18.768Z,99.90
2019-06-27T20:41:23.627Z,99.90
2019-06-27T20:43:28.471Z,99.90
2019-06-27T20:45:33.356Z,99.90
2019-06-27T20:47:38.495Z,99.90
2019-06-27T20:49:43.459Z,99.90
2019-06-27T20:51:49.159Z,99.90
2019-06-27T20:53:54.241Z,99.90
2019-06-27T20:55:59.148Z,99.90
2019-06-27T20:58:04.258Z,99.90
2019-06-27T21:00:10.775Z,99.90
2019-06-27T21:02:15.597Z,99.90
2019-06-27T21:04:20.628Z,99.90
2019-06-27T21:06:25.473Z,99.90
2019-06-27T21:08:30.523Z,99.90
2019-06-27T21:10:35.695Z,99.90
2019-06-27T21:12:40.464Z,99.90
2019-06-27T21:14:45.537Z,99.90
2019-06-27T21:16:50.334Z,99.90
2019-06-27T21:18:55.081Z,99.90
2019-06-27T21:20:59.871Z,99.90
2019-06-27T21:23:04.691Z,99.90
2019-06-27T21:25:09.556Z,99.90
2019-06-27T21:27:14.401Z,99.90
2019-06-27T21:29:19.141Z,99.90
2019-06-27T21:31:23.892Z,99.90
2019-06-27T21:33:29.076Z,99.90
2019-06-27T21:35:33.850Z,99.90
2019-06-27T21:37:39.076Z,99.90
2019-06-27T21:39:44.172Z,99.90
2019-06-27T21:41:48.974Z,99.90
2019-06-27T21:43:53.785Z,99.90
2019-06-27T21:45:58.510Z,99.90
2019-06-27T21:48:03.312Z,99.90
2019-06-27T21:50:08.804Z,99.90
2019-06-27T21:52:14.077Z,99.90
2019-06-27T21:54:19.296Z,99.90
2019-06-27T21:56:24.084Z,99.90
2019-06-27T21:58:29.152Z,99.90
2019-06-27T22:00:35.832Z,99.90
2019-06-27T22:02:41.014Z,99.90
2019-06-27T22:04:46.191Z,99.90
2019-06-27T22:06:50.979Z,99.90
2019-06-27T22:08:55.889Z,99.90
2019-06-27T22:11:00.690Z,99.90
2019-06-27T22:13:05.802Z,99.90
2019-06-27T22:15:11.080Z,99.90
2019-06-27T22:17:16.102Z,99.90
2019-06-27T22:19:20.827Z,99.90
2019-06-27T22:21:26.026Z,99.90
2019-06-27T22:23:30.849Z,99.90
2019-06-27T22:25:40.617Z,99.90
2019-06-27T22:27:42.208Z,99.90
2019-06-27T22:29:47.288Z,99.90
2019-06-27T22:31:52.159Z,99.90
2019-06-27T22:33:56.923Z,99.90
2019-06-27T22:36:01.686Z,99.90
2019-06-27T22:38:24.131Z,99.90
2019-06-27T22:40:46.886Z,99.90
2019-06-27T22:43:09.285Z,99.90
2019-06-27T22:45:32.092Z,99.90
2019-06-27T22:47:54.960Z,99.90
2019-06-27T22:49:59.865Z,99.90
2019-06-27T22:52:22.944Z,99.90
2019-06-27T22:54:28.754Z,99.90
2019-06-27T22:56:33.777Z,99.90
2019-06-27T22:58:38.823Z,99.90
2019-06-27T23:00:44.132Z,99.90
2019-06-27T23:02:49.466Z,99.90
2019-06-27T23:04:54.643Z,99.90
2019-06-27T23:06:59.789Z,99.90
2019-06-27T23:09:05.232Z,99.90
2019-06-27T23:11:10.618Z,99.90
2019-06-27T23:13:15.645Z,99.90
2019-06-27T23:15:20.937Z,99.90
2019-06-27T23:17:26.433Z,99.90
2019-06-27T23:19:31.604Z,99.90
2019-06-27T23:21:36.793Z,99.90
2019-06-27T23:23:42.012Z,99.90
2019-06-27T23:25:47.756Z,99.90
2019-06-27T23:27:52.810Z,99.90
2019-06-27T23:29:57.862Z,99.90
2019-06-27T23:32:03.025Z,99.90
2019-06-27T23:34:08.093Z,99.90
2019-06-27T23:36:13.084Z,99.90
2019-06-27T23:38:18.262Z,99.90
2019-06-27T23:40:23.504Z,99.90
2019-06-27T23:42:28.596Z,99.90
2019-06-27T23:44:33.759Z,99.90
2019-06-27T23:46:42.801Z,99.90
2019-06-27T23:48:48.108Z,99.90
2019-06-27T23:50:53.273Z,99.90
2019-06-27T23:52:59.299Z,99.90
2019-06-27T23:55:04.887Z,99.90
2019-06-27T23:57:09.991Z,99.90
2019-06-27T23:59:14.825Z,99.90
